createdAt,value
2018-07-26T00:02:19.837Z,96418.72
2018-07-26T00:04:47.037Z,96416.02
2018-07-26T00:07:14.263Z,96414.94
2018-07-26T00:09:41.447Z,96411.82
2018-07-26T00:12:08.619Z,96413.86
2018-07-26T00:14:35.861Z,96412.26
2018-07-26T00:17:03.175Z,96414.62
2018-07-26T00:19:30.410Z,96414.61
2018-07-26T00:21:57.634Z,96411.65
2018-07-26T00:24:24.752Z,96411.84
2018-07-26T00:26:52.025Z,96412.38
2018-07-26T00:29:19.288Z,96409.72
2018-07-26T00:31:46.466Z,96408.06
2018-07-26T00:34:13.887Z,96409.44
2018-07-26T00:36:41.125Z,96410.77
2018-07-26T00:39:09.793Z,96410.78
2018-07-26T00:41:37.194Z,96409.55
2018-07-26T00:44:04.389Z,96413.90
2018-07-26T00:46:31.589Z,96412.22
2018-07-26T00:48:58.868Z,96413.91
2018-07-26T00:51:26.128Z,96408.59
2018-07-26T00:53:53.370Z,96415.77
2018-07-26T00:56:20.746Z,96410.98
2018-07-26T00:58:47.995Z,96412.30
2018-07-26T01:01:15.230Z,96411.34
2018-07-26T01:03:42.598Z,96410.73
2018-07-26T01:06:09.905Z,96413.03
2018-07-26T01:08:37.100Z,96409.25
2018-07-26T01:11:04.414Z,96410.09
2018-07-26T01:13:31.641Z,96405.27
2018-07-26T01:15:58.813Z,96406.27
2018-07-26T01:18:26.035Z,96405.79
2018-07-26T01:20:53.271Z,96411.94
2018-07-26T01:23:20.511Z,96417.11
2018-07-26T01:25:47.724Z,96412.64
2018-07-26T01:28:15.059Z,96416.81
2018-07-26T01:30:42.654Z,96413.18
2018-07-26T01:33:10.050Z,96416.97
2018-07-26T01:35:37.253Z,96407.55
2018-07-26T01:38:04.483Z,96411.87
2018-07-26T01:40:31.726Z,96411.87
2018-07-26T01:43:10.699Z,96410.89
2018-07-26T01:45:37.855Z,96398.97
2018-07-26T01:48:05.087Z,96404.42
2018-07-26T01:50:32.266Z,96394.66
2018-07-26T01:52:59.471Z,96406.25
2018-07-26T01:55:26.689Z,96409.89
2018-07-26T01:57:53.922Z,96411.55
2018-07-26T02:00:21.173Z,96368.84
2018-07-26T02:02:48.427Z,96409.94
2018-07-26T02:05:15.723Z,96408.24
2018-07-26T02:07:42.946Z,96409.89
2018-07-26T02:10:10.110Z,96408.77
2018-07-26T02:12:37.377Z,96407.91
2018-07-26T02:15:04.726Z,96402.62
2018-07-26T02:17:32.077Z,96409.89
2018-07-26T02:19:59.288Z,96403.61
2018-07-26T02:22:26.514Z,96402.94
2018-07-26T02:24:53.721Z,96401.96
2018-07-26T02:27:20.957Z,96409.41
2018-07-26T02:29:48.121Z,96405.27
2018-07-26T02:32:15.347Z,96410.06
2018-07-26T02:34:43.961Z,96409.89
2018-07-26T02:37:11.181Z,96408.59
2018-07-26T02:39:38.440Z,96414.04
2018-07-26T02:42:07.504Z,96409.06
2018-07-26T02:44:34.689Z,96400.47
2018-07-26T02:47:01.918Z,96413.55
2018-07-26T02:49:29.067Z,96408.26
2018-07-26T02:51:56.339Z,96411.23
2018-07-26T02:54:23.541Z,96414.52
2018-07-26T02:56:50.752Z,96413.19
2018-07-26T02:59:17.974Z,96412.53
2018-07-26T03:01:45.092Z,96414.50
2018-07-26T03:04:12.384Z,96413.52
2018-07-26T03:06:39.620Z,96417.78
2018-07-26T03:09:07.730Z,96414.96
2018-07-26T03:11:35.024Z,96417.38
2018-07-26T03:14:02.276Z,96420.36
2018-07-26T03:16:29.440Z,96418.86
2018-07-26T03:18:56.636Z,96424.48
2018-07-26T03:21:23.924Z,96419.86
2018-07-26T03:23:51.138Z,96425.61
2018-07-26T03:26:18.425Z,96431.41
2018-07-26T03:28:45.684Z,96428.59
2018-07-26T03:31:12.926Z,96431.92
2018-07-26T03:33:40.156Z,96435.23
2018-07-26T03:36:07.377Z,96437.21
2018-07-26T03:38:34.588Z,96436.55
2018-07-26T03:41:01.809Z,96439.83
2018-07-26T03:43:29.127Z,96442.95
2018-07-26T03:45:56.360Z,96431.02
2018-07-26T03:48:23.610Z,96444.06
2018-07-26T03:50:50.747Z,96439.73
2018-07-26T03:53:17.979Z,96445.69
2018-07-26T03:55:45.249Z,96452.27
2018-07-26T03:58:12.404Z,96450.61
2018-07-26T04:00:39.632Z,96451.09
2018-07-26T04:03:06.914Z,96448.73
2018-07-26T04:05:34.156Z,96451.56
2018-07-26T04:08:01.289Z,96453.18
2018-07-26T04:10:28.499Z,96454.64
2018-07-26T04:12:55.699Z,96453.88
2018-07-26T04:15:22.896Z,96453.88
2018-07-26T04:17:56.499Z,96461.00
2018-07-26T04:20:23.706Z,96455.57
2018-07-26T04:22:50.904Z,96448.95
2018-07-26T04:25:18.142Z,96451.60
2018-07-26T04:27:45.347Z,96460.52
2018-07-26T04:30:12.551Z,96458.91
2018-07-26T04:32:39.762Z,96451.48
2018-07-26T04:35:07.057Z,96461.92
2018-07-26T04:37:34.284Z,96460.92
2018-07-26T04:40:01.465Z,96457.95
2018-07-26T04:42:28.696Z,96456.19
2018-07-26T04:44:55.858Z,96457.80
2018-07-26T04:47:23.037Z,96454.68
2018-07-26T04:49:50.289Z,96458.16
2018-07-26T04:52:17.509Z,96455.48
2018-07-26T04:54:44.709Z,96428.47
2018-07-26T04:57:11.897Z,96457.33
2018-07-26T04:59:39.079Z,96459.67
2018-07-26T05:02:06.320Z,96460.36
2018-07-26T05:04:33.502Z,96463.19
2018-07-26T05:07:00.748Z,96467.66
2018-07-26T05:09:27.978Z,96469.59
2018-07-26T05:11:55.258Z,96446.23
2018-07-26T05:14:22.505Z,96469.81
2018-07-26T05:16:49.763Z,96474.00
2018-07-26T05:19:16.998Z,96468.27
2018-07-26T05:21:44.299Z,96468.80
2018-07-26T05:24:11.543Z,96471.05
2018-07-26T05:26:38.926Z,96466.78
2018-07-26T05:29:06.295Z,96459.86
2018-07-26T05:31:33.511Z,96464.36
2018-07-26T05:34:00.745Z,96475.98
2018-07-26T05:36:28.065Z,96477.62
2018-07-26T05:38:55.287Z,96471.51
2018-07-26T05:41:22.536Z,96470.55
2018-07-26T05:43:49.782Z,96475.17
2018-07-26T05:46:17.077Z,96475.18
2018-07-26T05:48:44.290Z,96471.15
2018-07-26T05:51:11.448Z,96476.11
2018-07-26T05:53:38.658Z,96477.42
2018-07-26T05:56:05.932Z,96483.68
2018-07-26T05:58:33.094Z,96484.09
2018-07-26T06:01:00.295Z,96480.88
2018-07-26T06:03:27.428Z,96480.52
2018-07-26T06:05:54.635Z,96483.48
2018-07-26T06:08:21.918Z,96479.63
2018-07-26T06:10:49.135Z,96479.29
2018-07-26T06:13:16.321Z,96482.05
2018-07-26T06:15:43.608Z,96482.62
2018-07-26T06:18:10.808Z,96484.58
2018-07-26T06:20:38.109Z,96486.27
2018-07-26T06:23:05.389Z,96485.28
2018-07-26T06:25:32.596Z,96488.17
2018-07-26T06:27:59.921Z,96489.89
2018-07-26T06:30:27.146Z,96494.30
2018-07-26T06:32:55.179Z,96491.23
2018-07-26T06:35:22.426Z,96489.30
2018-07-26T06:37:49.666Z,96490.62
2018-07-26T06:40:16.862Z,96498.14
2018-07-26T06:42:44.023Z,96492.52
2018-07-26T06:45:11.236Z,96496.72
2018-07-26T06:47:38.685Z,96492.62
2018-07-26T06:50:07.498Z,96490.60
2018-07-26T06:52:34.848Z,96488.92
2018-07-26T06:55:02.164Z,96486.41
2018-07-26T06:57:29.474Z,96491.42
2018-07-26T06:59:56.834Z,96489.61
2018-07-26T07:02:24.099Z,96492.38
2018-07-26T07:04:51.268Z,96488.98
2018-07-26T07:07:18.638Z,96484.58
2018-07-26T07:09:45.775Z,96488.02
2018-07-26T07:12:13.078Z,96489.84
2018-07-26T07:14:40.290Z,96492.52
2018-07-26T07:17:07.774Z,96493.66
2018-07-26T07:19:35.014Z,96491.53
2018-07-26T07:22:02.243Z,96491.83
2018-07-26T07:24:29.437Z,96492.55
2018-07-26T07:26:56.654Z,96496.98
2018-07-26T07:29:23.898Z,96494.13
2018-07-26T07:31:51.248Z,96492.23
2018-07-26T07:34:18.420Z,96497.46
2018-07-26T07:36:45.750Z,96492.17
2018-07-26T07:39:13.840Z,96490.73
2018-07-26T07:41:41.193Z,96492.98
2018-07-26T07:44:08.958Z,96492.48
2018-07-26T07:46:36.254Z,96491.23
2018-07-26T07:49:03.467Z,96498.52
2018-07-26T07:51:30.962Z,96498.97
2018-07-26T07:53:58.247Z,96494.82
2018-07-26T07:56:25.506Z,96498.47
2018-07-26T07:58:52.724Z,96495.02
2018-07-26T08:01:19.953Z,96493.04
2018-07-26T08:03:47.151Z,96490.41
2018-07-26T08:06:14.454Z,96495.09
2018-07-26T08:08:41.635Z,96496.59
2018-07-26T08:11:08.886Z,96491.04
2018-07-26T08:13:36.034Z,96495.08
2018-07-26T08:16:03.323Z,96495.91
2018-07-26T08:18:30.666Z,96496.64
2018-07-26T08:20:57.860Z,96493.14
2018-07-26T08:23:25.160Z,96495.04
2018-07-26T08:25:52.507Z,96495.99
2018-07-26T08:28:19.764Z,96505.98
2018-07-26T08:30:47.871Z,96505.47
2018-07-26T08:33:15.212Z,96501.73
2018-07-26T08:35:42.452Z,96509.80
2018-07-26T08:38:09.710Z,96507.15
2018-07-26T08:40:37.018Z,96498.97
2018-07-26T08:43:04.255Z,96502.84
2018-07-26T08:45:31.406Z,96499.77
2018-07-26T08:47:58.623Z,96493.52
2018-07-26T08:50:25.970Z,96507.42
2018-07-26T08:52:53.115Z,96500.85
2018-07-26T08:55:20.343Z,96500.30
2018-07-26T08:57:47.512Z,96499.94
2018-07-26T09:00:17.685Z,96495.71
2018-07-26T09:02:45.827Z,96501.39
2018-07-26T09:05:13.250Z,96498.72
2018-07-26T09:07:40.504Z,96504.30
2018-07-26T09:10:07.670Z,96499.48
2018-07-26T09:12:35.005Z,96495.25
2018-07-26T09:15:02.549Z,96494.59
2018-07-26T09:17:29.798Z,96497.53
2018-07-26T09:19:56.985Z,96489.56
2018-07-26T09:22:24.279Z,96487.16
2018-07-26T09:24:51.529Z,96481.31
2018-07-26T09:27:18.814Z,96486.49
2018-07-26T09:29:46.009Z,96482.42
2018-07-26T09:32:13.219Z,96487.12
2018-07-26T09:34:40.438Z,96488.16
2018-07-26T09:37:07.655Z,96488.70
2018-07-26T09:39:34.875Z,96482.28
2018-07-26T09:42:02.195Z,96483.45
2018-07-26T09:44:29.431Z,96488.03
2018-07-26T09:46:56.627Z,96484.22
2018-07-26T09:49:23.895Z,96485.00
2018-07-26T09:51:51.128Z,96483.97
2018-07-26T09:54:18.397Z,96480.47
2018-07-26T09:56:45.681Z,96478.32
2018-07-26T09:59:12.952Z,96480.39
2018-07-26T10:01:40.941Z,96487.39
2018-07-26T10:04:08.287Z,96475.95
2018-07-26T10:06:35.539Z,96474.99
2018-07-26T10:09:05.085Z,96480.46
2018-07-26T10:11:32.365Z,96476.80
2018-07-26T10:13:59.642Z,96476.19
2018-07-26T10:16:26.787Z,96472.88
2018-07-26T10:18:54.037Z,96465.86
2018-07-26T10:21:21.339Z,96476.08
2018-07-26T10:23:48.593Z,96471.23
2018-07-26T10:26:15.858Z,96468.45
2018-07-26T10:28:42.986Z,96465.65
2018-07-26T10:31:10.173Z,96473.27
2018-07-26T10:33:37.402Z,96465.50
2018-07-26T10:36:04.802Z,96470.38
2018-07-26T10:38:32.037Z,96464.16
2018-07-26T10:40:59.323Z,96460.45
2018-07-26T10:43:26.628Z,96453.36
2018-07-26T10:45:53.812Z,96458.30
2018-07-26T10:48:21.208Z,96463.86
2018-07-26T10:50:48.447Z,96467.03
2018-07-26T10:53:15.677Z,96462.80
2018-07-26T10:55:42.973Z,96457.19
2018-07-26T10:58:10.220Z,96461.64
2018-07-26T11:00:37.455Z,96467.75
2018-07-26T11:03:04.864Z,96456.31
2018-07-26T11:05:32.159Z,96455.99
2018-07-26T11:07:59.341Z,96456.66
2018-07-26T11:10:26.551Z,96453.91
2018-07-26T11:12:53.822Z,96451.97
2018-07-26T11:15:27.918Z,96450.94
2018-07-26T11:17:55.269Z,96450.46
2018-07-26T11:20:22.589Z,96442.63
2018-07-26T11:22:49.762Z,96445.77
2018-07-26T11:25:17.089Z,96442.50
2018-07-26T11:27:44.408Z,96443.99
2018-07-26T11:30:11.796Z,96438.98
2018-07-26T11:32:39.383Z,96425.52
2018-07-26T11:35:06.617Z,96427.55
2018-07-26T11:37:33.866Z,96425.97
2018-07-26T11:40:01.170Z,96415.68
2018-07-26T11:42:28.481Z,96421.28
2018-07-26T11:44:55.692Z,96431.44
2018-07-26T11:47:22.996Z,96418.22
2018-07-26T11:49:50.166Z,96416.52
2018-07-26T11:52:17.452Z,96417.20
2018-07-26T11:54:44.779Z,96405.52
2018-07-26T11:57:12.127Z,96403.61
2018-07-26T11:59:39.485Z,96402.94
2018-07-26T12:02:06.740Z,96403.30
2018-07-26T12:04:34.014Z,96393.71
2018-07-26T12:07:01.316Z,96396.17
2018-07-26T12:09:28.621Z,96396.91
2018-07-26T12:11:55.922Z,96403.59
2018-07-26T12:14:23.240Z,96386.89
2018-07-26T12:16:50.439Z,96394.44
2018-07-26T12:19:17.638Z,96397.64
2018-07-26T12:21:44.869Z,96389.69
2018-07-26T12:24:12.144Z,96391.27
2018-07-26T12:26:39.380Z,96397.59
2018-07-26T12:29:06.782Z,96392.27
2018-07-26T12:31:33.992Z,96395.96
2018-07-26T12:34:01.414Z,96380.34
2018-07-26T12:36:28.798Z,96384.64
2018-07-26T12:38:56.157Z,96363.26
2018-07-26T12:41:23.460Z,96376.30
2018-07-26T12:43:50.747Z,96367.83
2018-07-26T12:46:18.110Z,96372.98
2018-07-26T12:48:45.497Z,96367.04
2018-07-26T12:51:12.879Z,96363.98
2018-07-26T12:53:40.133Z,96371.84
2018-07-26T12:56:07.528Z,96367.34
2018-07-26T12:58:34.724Z,96370.26
2018-07-26T13:01:01.992Z,96362.27
2018-07-26T13:03:29.281Z,96363.88
2018-07-26T13:05:56.606Z,96364.51
2018-07-26T13:08:23.936Z,96362.40
2018-07-26T13:10:51.337Z,96356.19
2018-07-26T13:13:18.865Z,96358.80
2018-07-26T13:15:46.216Z,96365.67
2018-07-26T13:18:13.582Z,96355.13
2018-07-26T13:20:40.980Z,96346.99
2018-07-26T13:23:08.413Z,96347.53
2018-07-26T13:25:35.746Z,96343.25
2018-07-26T13:28:03.231Z,96348.63
2018-07-26T13:30:30.602Z,96343.33
2018-07-26T13:32:58.001Z,96349.91
2018-07-26T13:35:25.563Z,96348.59
2018-07-26T13:37:53.067Z,96339.33
2018-07-26T13:40:20.376Z,96346.73
2018-07-26T13:42:47.588Z,96350.42
2018-07-26T13:45:14.906Z,96335.73
2018-07-26T13:47:42.208Z,96331.05
2018-07-26T13:50:09.329Z,96338.28
2018-07-26T13:52:36.641Z,96336.41
2018-07-26T13:55:04.121Z,96337.30
2018-07-26T13:57:31.417Z,96335.63
2018-07-26T13:59:58.705Z,96338.14
2018-07-26T14:02:25.974Z,96300.16
2018-07-26T14:04:53.281Z,96331.52
2018-07-26T14:07:20.713Z,96323.24
2018-07-26T14:09:47.882Z,96331.27
2018-07-26T14:12:15.181Z,96332.44
2018-07-26T14:14:42.472Z,96336.89
2018-07-26T14:17:09.808Z,96333.28
2018-07-26T14:19:37.183Z,96325.33
2018-07-26T14:22:04.568Z,96285.77
2018-07-26T14:24:31.780Z,96325.59
2018-07-26T14:26:59.071Z,96321.61
2018-07-26T14:29:26.392Z,96325.42
2018-07-26T14:31:53.595Z,96321.62
2018-07-26T14:34:20.980Z,96320.23
2018-07-26T14:36:48.293Z,96318.41
2018-07-26T14:39:15.547Z,96319.41
2018-07-26T14:41:42.748Z,96312.40
2018-07-26T14:44:10.370Z,96315.53
2018-07-26T14:46:38.033Z,96314.23
2018-07-26T14:49:05.345Z,96314.31
2018-07-26T14:51:33.014Z,96254.11
2018-07-26T14:54:00.271Z,96304.23
2018-07-26T14:56:27.642Z,96307.36
2018-07-26T14:58:54.867Z,96306.61
2018-07-26T15:01:22.195Z,96304.34
2018-07-26T15:03:49.419Z,96298.86
2018-07-26T15:06:16.733Z,96296.89
2018-07-26T15:08:44.023Z,96297.13
2018-07-26T15:11:11.263Z,96303.51
2018-07-26T15:13:38.446Z,96312.44
2018-07-26T15:16:05.768Z,96295.85
2018-07-26T15:18:33.022Z,96301.55
2018-07-26T15:21:00.325Z,96304.27
2018-07-26T15:23:27.527Z,96299.97
2018-07-26T15:25:54.735Z,96296.37
2018-07-26T15:28:21.961Z,96300.75
2018-07-26T15:30:49.194Z,96297.80
2018-07-26T15:33:16.441Z,96298.51
2018-07-26T15:35:43.702Z,96299.96
2018-07-26T15:38:10.951Z,96302.48
2018-07-26T15:40:38.271Z,96299.28
2018-07-26T15:43:06.162Z,96295.25
2018-07-26T15:45:33.373Z,96295.77
2018-07-26T15:48:00.614Z,96292.79
2018-07-26T15:50:27.871Z,96295.50
2018-07-26T15:52:55.096Z,96291.56
2018-07-26T15:55:22.372Z,96293.93
2018-07-26T15:57:49.620Z,96287.98
2018-07-26T16:00:16.859Z,96291.48
2018-07-26T16:02:44.143Z,96289.45
2018-07-26T16:05:11.421Z,96288.50
2018-07-26T16:07:38.648Z,96281.09
2018-07-26T16:10:06.798Z,96281.92
2018-07-26T16:12:34.095Z,96281.33
2018-07-26T16:15:01.454Z,96274.72
2018-07-26T16:17:29.360Z,96274.87
2018-07-26T16:19:56.524Z,96277.48
2018-07-26T16:22:24.130Z,96272.84
2018-07-26T16:24:51.307Z,96273.95
2018-07-26T16:27:18.584Z,96276.06
2018-07-26T16:29:45.853Z,96277.17
2018-07-26T16:32:13.039Z,96274.99
2018-07-26T16:34:40.216Z,96272.32
2018-07-26T16:37:07.424Z,96284.25
2018-07-26T16:39:34.686Z,96279.56
2018-07-26T16:42:02.013Z,96282.98
2018-07-26T16:44:29.270Z,96276.30
2018-07-26T16:46:56.512Z,96284.73
2018-07-26T16:49:23.809Z,96288.22
2018-07-26T16:51:51.090Z,96285.02
2018-07-26T16:54:19.707Z,96278.64
2018-07-26T16:56:47.377Z,96281.20
2018-07-26T16:59:14.635Z,96283.27
2018-07-26T17:01:41.810Z,96284.73
2018-07-26T17:04:09.142Z,96285.07
2018-07-26T17:06:36.331Z,96278.56
2018-07-26T17:09:07.026Z,96274.23
2018-07-26T17:11:34.292Z,96277.78
2018-07-26T17:14:01.598Z,96279.70
2018-07-26T17:16:33.533Z,96276.93
2018-07-26T17:19:01.132Z,96277.66
2018-07-26T17:21:28.377Z,96276.94
2018-07-26T17:23:56.069Z,96273.02
2018-07-26T17:26:23.368Z,96271.53
2018-07-26T17:28:50.616Z,96277.87
2018-07-26T17:31:17.846Z,96274.93
2018-07-26T17:33:45.070Z,96283.88
2018-07-26T17:36:12.284Z,96279.42
2018-07-26T17:38:39.493Z,96283.53
2018-07-26T17:41:06.801Z,96277.50
2018-07-26T17:43:34.052Z,96277.92
2018-07-26T17:46:01.342Z,96280.63
2018-07-26T17:48:28.664Z,96287.11
2018-07-26T17:50:55.935Z,96286.11
2018-07-26T17:53:23.151Z,96288.64
2018-07-26T17:55:52.565Z,96290.60
2018-07-26T17:58:20.330Z,96289.98
2018-07-26T18:00:47.541Z,96285.72
2018-07-26T18:03:14.781Z,96288.13
2018-07-26T18:05:42.019Z,96291.39
2018-07-26T18:08:09.291Z,96296.67
2018-07-26T18:10:36.734Z,96294.41
2018-07-26T18:13:03.883Z,96304.36
2018-07-26T18:15:31.104Z,96298.33
2018-07-26T18:17:58.276Z,96296.80
2018-07-26T18:20:25.513Z,96297.02
2018-07-26T18:22:57.572Z,96299.91
2018-07-26T18:25:24.887Z,96300.17
2018-07-26T18:27:52.162Z,96307.95
2018-07-26T18:30:19.389Z,96310.42
2018-07-26T18:32:46.597Z,96308.78
2018-07-26T18:35:13.801Z,96309.13
2018-07-26T18:37:41.158Z,96303.64
2018-07-26T18:40:08.476Z,96307.13
2018-07-26T18:42:39.785Z,96311.45
2018-07-26T18:45:08.162Z,96300.05
2018-07-26T18:47:35.521Z,96313.62
2018-07-26T18:50:02.843Z,96315.12
2018-07-26T18:52:30.163Z,96314.96
2018-07-26T18:54:57.448Z,96318.70
2018-07-26T18:57:25.017Z,96315.44
2018-07-26T18:59:52.258Z,96324.53
2018-07-26T19:02:20.297Z,96323.47
2018-07-26T19:04:48.021Z,96329.13
2018-07-26T19:07:15.217Z,96329.70
2018-07-26T19:09:42.445Z,96329.82
2018-07-26T19:12:09.792Z,96329.30
2018-07-26T19:14:37.050Z,96325.98
2018-07-26T19:17:04.749Z,96335.26
2018-07-26T19:19:32.018Z,96332.95
2018-07-26T19:22:04.816Z,96338.09
2018-07-26T19:24:32.034Z,96336.37
2018-07-26T19:26:59.288Z,96343.38
2018-07-26T19:29:26.567Z,96348.00
2018-07-26T19:31:53.754Z,96349.87
2018-07-26T19:34:21.227Z,96349.38
2018-07-26T19:36:48.522Z,96354.88
2018-07-26T19:39:15.769Z,96356.32
2018-07-26T19:41:43.094Z,96357.59
2018-07-26T19:44:14.781Z,96360.91
2018-07-26T19:46:42.083Z,96359.47
2018-07-26T19:49:09.313Z,96361.00
2018-07-26T19:51:36.699Z,96359.27
2018-07-26T19:54:04.042Z,96373.48
2018-07-26T19:56:31.210Z,96368.34
2018-07-26T19:58:58.473Z,96366.09
2018-07-26T20:01:25.668Z,96368.18
2018-07-26T20:03:52.915Z,96369.11
2018-07-26T20:06:20.275Z,96370.33
2018-07-26T20:08:47.536Z,96369.78
2018-07-26T20:11:14.805Z,96372.87
2018-07-26T20:13:42.116Z,96370.59
2018-07-26T20:16:09.426Z,96368.12
2018-07-26T20:18:36.717Z,96367.41
2018-07-26T20:21:04.010Z,96367.28
2018-07-26T20:23:31.264Z,96356.54
2018-07-26T20:25:58.644Z,96369.59
2018-07-26T20:28:25.861Z,96372.63
2018-07-26T20:30:53.126Z,96375.06
2018-07-26T20:33:20.404Z,96375.13
2018-07-26T20:35:47.627Z,96384.12
2018-07-26T20:38:16.002Z,96389.83
2018-07-26T20:40:43.313Z,96378.69
2018-07-26T20:43:10.627Z,96385.27
2018-07-26T20:45:38.001Z,96379.46
2018-07-26T20:48:05.338Z,96388.20
2018-07-26T20:50:32.634Z,96384.97
2018-07-26T20:53:00.004Z,96388.28
2018-07-26T20:55:27.272Z,96395.47
2018-07-26T20:57:54.525Z,96384.59
2018-07-26T21:00:21.805Z,96394.45
2018-07-26T21:02:49.141Z,96396.64
2018-07-26T21:05:16.439Z,96403.22
2018-07-26T21:07:43.679Z,96407.62
2018-07-26T21:10:10.979Z,96409.31
2018-07-26T21:12:38.260Z,96410.77
2018-07-26T21:15:06.519Z,96402.06
2018-07-26T21:17:33.741Z,96404.05
2018-07-26T21:20:01.008Z,96343.69
2018-07-26T21:22:28.892Z,96394.61
2018-07-26T21:24:56.232Z,96403.70
2018-07-26T21:27:23.436Z,96408.19
2018-07-26T21:29:50.629Z,96406.23
2018-07-26T21:32:17.861Z,96404.34
2018-07-26T21:34:45.110Z,96405.22
2018-07-26T21:37:12.557Z,96409.04
2018-07-26T21:39:39.816Z,96402.42
2018-07-26T21:42:07.150Z,96405.16
2018-07-26T21:44:34.407Z,96404.91
2018-07-26T21:47:01.643Z,96401.09
2018-07-26T21:49:28.929Z,96401.81
2018-07-26T21:51:56.217Z,96400.72
2018-07-26T21:54:23.493Z,96405.94
2018-07-26T21:56:50.763Z,96398.88
2018-07-26T21:59:18.005Z,96402.38
2018-07-26T22:01:45.377Z,96406.84
2018-07-26T22:04:12.737Z,96400.59
2018-07-26T22:06:39.952Z,96399.49
2018-07-26T22:09:08.798Z,96402.16
2018-07-26T22:11:36.130Z,96400.41
2018-07-26T22:14:03.333Z,96401.33
2018-07-26T22:16:30.770Z,96404.99
2018-07-26T22:18:58.004Z,96399.72
2018-07-26T22:21:25.226Z,96396.42
2018-07-26T22:23:52.438Z,96397.13
2018-07-26T22:26:19.646Z,96398.27
2018-07-26T22:28:46.877Z,96391.00
2018-07-26T22:31:14.101Z,96389.67
2018-07-26T22:33:41.306Z,96382.55
2018-07-26T22:36:08.681Z,96382.73
2018-07-26T22:38:35.954Z,96384.80
2018-07-26T22:41:03.358Z,96385.14
2018-07-26T22:43:30.608Z,96392.45
2018-07-26T22:45:57.899Z,96388.97
2018-07-26T22:48:25.176Z,96387.02
2018-07-26T22:50:52.414Z,96385.34
2018-07-26T22:53:19.644Z,96386.45
2018-07-26T22:55:46.905Z,96384.43
2018-07-26T22:58:14.153Z,96383.31
2018-07-26T23:00:41.323Z,96380.34
2018-07-26T23:03:08.525Z,96387.67
2018-07-26T23:05:35.738Z,96386.72
2018-07-26T23:08:03.093Z,96381.45
2018-07-26T23:10:30.319Z,96390.42
2018-07-26T23:12:57.979Z,96388.42
2018-07-26T23:15:25.396Z,96386.84
2018-07-26T23:17:52.555Z,96384.00
2018-07-26T23:20:19.817Z,96387.82
2018-07-26T23:22:51.107Z,96387.70
2018-07-26T23:25:18.537Z,96385.21
2018-07-26T23:27:45.826Z,96382.23
2018-07-26T23:30:13.429Z,96386.54
2018-07-26T23:32:40.870Z,96383.73
2018-07-26T23:35:08.483Z,96385.92
2018-07-26T23:37:35.949Z,96381.63
2018-07-26T23:40:03.890Z,96380.30
2018-07-26T23:42:31.071Z,96382.50
2018-07-26T23:44:58.349Z,96377.16
2018-07-26T23:47:25.637Z,96376.52
2018-07-26T23:49:52.799Z,96384.47
2018-07-26T23:52:20.024Z,96376.70
2018-07-26T23:54:47.256Z,96377.84
2018-07-26T23:57:14.498Z,96378.36
2018-07-26T23:59:41.743Z,96373.92
